createdAt,value
2022-07-25T00:01:32.010Z,1011.93
2022-07-25T00:02:31.987Z,1011.92
2022-07-25T00:04:36.187Z,1011.87
2022-07-25T00:05:38.056Z,1011.86
2022-07-25T00:07:29.145Z,1011.87
2022-07-25T00:08:29.180Z,1011.85
2022-07-25T00:10:22.379Z,1011.81
2022-07-25T00:11:22.414Z,1011.80
2022-07-25T00:13:16.465Z,1011.77
2022-07-25T00:14:16.495Z,1011.78
2022-07-25T00:16:20.630Z,1011.71
2022-07-25T00:17:20.584Z,1011.71
2022-07-25T00:19:24.628Z,1011.73
2022-07-25T00:20:24.661Z,1011.69
2022-07-25T00:22:28.722Z,1011.66
2022-07-25T00:23:28.760Z,1011.65
2022-07-25T00:25:32.820Z,1011.59
2022-07-25T00:26:37.886Z,1011.59
2022-07-25T00:28:26.098Z,1011.61
2022-07-25T00:29:26.128Z,1011.62
2022-07-25T00:31:19.359Z,1011.59
2022-07-25T00:32:19.338Z,1011.57
2022-07-25T00:34:12.498Z,1011.56
2022-07-25T00:35:12.537Z,1011.55
2022-07-25T00:37:05.591Z,1011.56
2022-07-25T00:38:05.584Z,1011.55
2022-07-25T00:40:09.647Z,1011.54
2022-07-25T00:41:09.683Z,1011.53
2022-07-25T00:43:13.772Z,1011.57
2022-07-25T00:44:13.806Z,1011.51
2022-07-25T00:46:07.042Z,1011.51
2022-07-25T00:47:07.005Z,1011.47
2022-07-25T00:49:00.291Z,1011.51
2022-07-25T00:50:00.247Z,1011.48
2022-07-25T00:51:53.404Z,1011.44
2022-07-25T00:52:53.439Z,1011.37
2022-07-25T00:54:46.814Z,1011.41
2022-07-25T00:55:46.647Z,1011.38
2022-07-25T00:57:50.726Z,1011.38
2022-07-25T00:58:50.760Z,1011.41
2022-07-25T01:00:43.938Z,1011.35
2022-07-25T01:01:44.012Z,1011.33
2022-07-25T01:03:48.048Z,1011.33
2022-07-25T01:04:48.084Z,1011.34
2022-07-25T01:05:53.390Z,1011.31
2022-07-25T01:06:48.165Z,1011.32
2022-07-25T01:07:48.198Z,1011.34
2022-07-25T01:08:48.236Z,1011.31
2022-07-25T01:09:48.277Z,1011.31
2022-07-25T01:10:48.312Z,1011.29
2022-07-25T01:11:48.352Z,1011.28
2022-07-25T01:12:48.390Z,1011.31
2022-07-25T01:13:48.427Z,1011.36
2022-07-25T01:14:48.467Z,1011.32
2022-07-25T01:15:48.660Z,1011.32
2022-07-25T01:16:48.543Z,1011.29
2022-07-25T01:17:48.581Z,1011.30
2022-07-25T01:18:48.619Z,1011.26
2022-07-25T01:19:48.658Z,1011.26
2022-07-25T01:20:48.707Z,1011.24
2022-07-25T01:21:48.736Z,1011.28
2022-07-25T01:22:48.774Z,1011.27
2022-07-25T01:23:48.811Z,1011.26
2022-07-25T01:24:48.848Z,1011.26
2022-07-25T01:25:48.888Z,1011.23
2022-07-25T01:26:48.926Z,1011.21
2022-07-25T01:27:54.663Z,1011.19
2022-07-25T01:28:49.011Z,1011.19
2022-07-25T01:29:49.069Z,1011.18
2022-07-25T01:30:49.191Z,1011.17
2022-07-25T01:31:49.123Z,1011.18
2022-07-25T01:32:49.167Z,1011.15
2022-07-25T01:33:49.204Z,1011.19
2022-07-25T01:34:49.243Z,1011.16
2022-07-25T01:35:49.282Z,1011.12
2022-07-25T01:36:49.319Z,1011.12
2022-07-25T01:37:49.360Z,1011.12
2022-07-25T01:38:49.399Z,1011.11
2022-07-25T01:39:49.438Z,1011.08
2022-07-25T01:40:49.494Z,1011.06
2022-07-25T01:41:49.512Z,1011.06
2022-07-25T01:42:49.550Z,1011.06
2022-07-25T01:43:49.586Z,1011.05
2022-07-25T01:44:49.626Z,1011.06
2022-07-25T01:45:49.702Z,1011.06
2022-07-25T01:46:49.789Z,1011.04
2022-07-25T01:47:49.742Z,1011.04
2022-07-25T01:48:49.874Z,1011.03
2022-07-25T01:49:49.817Z,1011.02
2022-07-25T01:50:49.857Z,1011.01
2022-07-25T01:51:49.893Z,1010.94
2022-07-25T01:52:49.933Z,1010.91
2022-07-25T01:53:49.972Z,1010.88
2022-07-25T01:54:50.012Z,1010.93
2022-07-25T01:55:50.047Z,1010.93
2022-07-25T01:56:50.085Z,1010.93
2022-07-25T01:57:50.352Z,1010.95
2022-07-25T01:58:50.165Z,1010.93
2022-07-25T01:59:50.200Z,1010.91
2022-07-25T02:00:50.238Z,1010.93
2022-07-25T02:01:50.385Z,1010.89
2022-07-25T02:02:50.316Z,1010.90
2022-07-25T02:03:50.355Z,1010.88
2022-07-25T02:04:50.490Z,1010.83
2022-07-25T02:05:50.428Z,1010.82
2022-07-25T02:06:50.469Z,1010.81
2022-07-25T02:07:50.508Z,1010.80
2022-07-25T02:08:50.546Z,1010.83
2022-07-25T02:09:56.315Z,1010.81
2022-07-25T02:10:50.632Z,1010.78
2022-07-25T02:11:50.660Z,1010.78
2022-07-25T02:12:50.695Z,1010.74
2022-07-25T02:13:50.736Z,1010.74
2022-07-25T02:14:50.777Z,1010.75
2022-07-25T02:15:50.814Z,1010.76
2022-07-25T02:16:50.905Z,1010.73
2022-07-25T02:17:50.888Z,1010.74
2022-07-25T02:18:50.928Z,1010.74
2022-07-25T02:19:50.965Z,1010.73
2022-07-25T02:20:51.002Z,1010.75
2022-07-25T02:21:51.042Z,1010.71
2022-07-25T02:22:51.079Z,1010.69
2022-07-25T02:23:51.121Z,1010.74
2022-07-25T02:24:51.156Z,1010.70
2022-07-25T02:25:51.193Z,1010.68
2022-07-25T02:26:51.231Z,1010.68
2022-07-25T02:27:51.269Z,1010.69
2022-07-25T02:28:51.307Z,1010.66
2022-07-25T02:29:51.349Z,1010.65
2022-07-25T02:30:51.406Z,1010.66
2022-07-25T02:31:51.427Z,1010.57
2022-07-25T02:32:51.459Z,1010.61
2022-07-25T02:33:51.499Z,1010.59
2022-07-25T02:34:51.537Z,1010.56
2022-07-25T02:35:51.575Z,1010.59
2022-07-25T02:36:51.614Z,1010.54
2022-07-25T02:37:51.654Z,1010.52
2022-07-25T02:38:51.690Z,1010.54
2022-07-25T02:39:51.731Z,1010.54
2022-07-25T02:40:51.766Z,1010.48
2022-07-25T02:41:51.809Z,1010.51
2022-07-25T02:42:51.850Z,1010.46
2022-07-25T02:43:51.925Z,1010.44
2022-07-25T02:44:51.917Z,1010.41
2022-07-25T02:45:52.003Z,1010.43
2022-07-25T02:46:52.007Z,1010.43
2022-07-25T02:47:52.032Z,1010.42
2022-07-25T02:48:52.107Z,1010.41
2022-07-25T02:49:52.107Z,1010.39
2022-07-25T02:50:52.144Z,1010.37
2022-07-25T02:51:52.184Z,1010.34
2022-07-25T02:52:52.220Z,1010.36
2022-07-25T02:53:57.615Z,1010.37
2022-07-25T02:54:52.297Z,1010.33
2022-07-25T02:55:52.336Z,1010.33
2022-07-25T02:56:52.372Z,1010.27
2022-07-25T02:57:52.413Z,1010.34
2022-07-25T02:58:52.448Z,1010.32
2022-07-25T02:59:52.490Z,1010.34
2022-07-25T03:00:52.565Z,1010.34
2022-07-25T03:01:52.676Z,1010.34
2022-07-25T03:02:52.603Z,1010.35
2022-07-25T03:03:52.793Z,1010.33
2022-07-25T03:04:52.677Z,1010.33
2022-07-25T03:05:52.717Z,1010.32
2022-07-25T03:06:52.765Z,1010.33
2022-07-25T03:07:52.794Z,1010.32
2022-07-25T03:08:52.831Z,1010.27
2022-07-25T03:09:52.868Z,1010.28
2022-07-25T03:10:52.906Z,1010.29
2022-07-25T03:11:52.947Z,1010.30
2022-07-25T03:12:52.982Z,1010.26
2022-07-25T03:13:53.021Z,1010.27
2022-07-25T03:14:53.060Z,1010.27
2022-07-25T03:15:53.096Z,1010.20
2022-07-25T03:16:53.221Z,1010.21
2022-07-25T03:17:53.172Z,1010.22
2022-07-25T03:18:53.209Z,1010.16
2022-07-25T03:19:53.249Z,1010.16
2022-07-25T03:20:53.286Z,1010.12
2022-07-25T03:21:53.325Z,1010.14
2022-07-25T03:22:53.362Z,1010.10
2022-07-25T03:23:53.401Z,1010.13
2022-07-25T03:24:53.438Z,1010.08
2022-07-25T03:25:53.476Z,1010.09
2022-07-25T03:26:53.515Z,1010.12
2022-07-25T03:27:53.554Z,1010.09
2022-07-25T03:28:53.590Z,1010.09
2022-07-25T03:29:53.628Z,1010.07
2022-07-25T03:30:53.664Z,1010.02
2022-07-25T03:31:53.767Z,1010.06
2022-07-25T03:32:53.740Z,1010.05
2022-07-25T03:33:53.781Z,1010.04
2022-07-25T03:34:53.817Z,1010.01
2022-07-25T03:35:53.856Z,1010.00
2022-07-25T03:36:53.896Z,1009.97
2022-07-25T03:37:53.932Z,1010.01
2022-07-25T03:38:53.968Z,1009.99
2022-07-25T03:39:54.017Z,1009.99
2022-07-25T03:40:54.044Z,1009.97
2022-07-25T03:41:54.083Z,1009.98
2022-07-25T03:42:54.119Z,1009.99
2022-07-25T03:43:54.158Z,1009.98
2022-07-25T03:44:54.197Z,1009.96
2022-07-25T03:45:54.291Z,1010.00
2022-07-25T03:46:54.273Z,1009.93
2022-07-25T03:47:54.312Z,1009.91
2022-07-25T03:48:54.380Z,1009.92
2022-07-25T03:49:54.390Z,1009.93
2022-07-25T03:50:54.424Z,1009.90
2022-07-25T03:51:54.465Z,1009.94
2022-07-25T03:52:54.501Z,1009.94
2022-07-25T03:53:54.541Z,1009.94
2022-07-25T03:54:54.579Z,1009.90
2022-07-25T03:55:54.614Z,1009.94
2022-07-25T03:56:54.651Z,1009.92
2022-07-25T03:57:54.716Z,1009.93
2022-07-25T03:58:54.726Z,1009.92
2022-07-25T03:59:54.766Z,1009.88
2022-07-25T04:00:54.825Z,1009.92
2022-07-25T04:01:54.863Z,1009.92
2022-07-25T04:02:54.879Z,1009.91
2022-07-25T04:03:54.918Z,1009.89
2022-07-25T04:04:54.953Z,1009.86
2022-07-25T04:05:54.992Z,1009.83
2022-07-25T04:06:55.040Z,1009.83
2022-07-25T04:07:55.079Z,1009.81
2022-07-25T04:08:55.105Z,1009.84
2022-07-25T04:09:55.147Z,1009.81
2022-07-25T04:10:55.186Z,1009.81
2022-07-25T04:11:55.219Z,1009.79
2022-07-25T04:12:55.257Z,1009.77
2022-07-25T04:13:55.295Z,1009.76
2022-07-25T04:14:55.331Z,1009.74
2022-07-25T04:15:55.371Z,1009.77
2022-07-25T04:16:55.438Z,1009.74
2022-07-25T04:17:55.474Z,1009.74
2022-07-25T04:18:55.485Z,1009.74
2022-07-25T04:19:55.522Z,1009.74
2022-07-25T04:20:55.571Z,1009.75
2022-07-25T04:21:55.604Z,1009.73
2022-07-25T04:22:55.633Z,1009.71
2022-07-25T04:23:55.672Z,1009.69
2022-07-25T04:24:55.710Z,1009.72
2022-07-25T04:25:55.748Z,1009.68
2022-07-25T04:26:55.785Z,1009.68
2022-07-25T04:27:55.824Z,1009.70
2022-07-25T04:28:55.861Z,1009.66
2022-07-25T04:29:55.900Z,1009.68
2022-07-25T04:30:55.938Z,1009.67
2022-07-25T04:31:56.067Z,1009.67
2022-07-25T04:32:56.023Z,1009.69
2022-07-25T04:33:56.051Z,1009.67
2022-07-25T04:34:56.088Z,1009.65
2022-07-25T04:35:56.127Z,1009.66
2022-07-25T04:36:56.162Z,1009.61
2022-07-25T04:37:56.200Z,1009.59
2022-07-25T04:38:56.241Z,1009.58
2022-07-25T04:39:56.278Z,1009.56
2022-07-25T04:40:56.324Z,1009.52
2022-07-25T04:41:56.355Z,1009.50
2022-07-25T04:42:56.395Z,1009.51
2022-07-25T04:43:56.433Z,1009.46
2022-07-25T04:44:56.466Z,1009.43
2022-07-25T04:45:56.544Z,1009.39
2022-07-25T04:46:56.540Z,1009.38
2022-07-25T04:47:56.580Z,1009.36
2022-07-25T04:48:56.645Z,1009.30
2022-07-25T04:49:56.654Z,1009.29
2022-07-25T04:50:56.692Z,1009.25
2022-07-25T04:51:56.734Z,1009.20
2022-07-25T04:52:56.770Z,1009.18
2022-07-25T04:53:56.812Z,1009.16
2022-07-25T04:54:56.843Z,1009.13
2022-07-25T04:55:56.882Z,1009.11
2022-07-25T04:56:56.923Z,1009.08
2022-07-25T04:57:56.959Z,1009.06
2022-07-25T04:58:58.666Z,1009.08
2022-07-25T04:59:57.034Z,1009.02
2022-07-25T05:00:57.150Z,1009.04
2022-07-25T05:01:57.142Z,1009.04
2022-07-25T05:02:57.148Z,1009.00
2022-07-25T05:03:57.186Z,1008.99
2022-07-25T05:04:57.259Z,1009.03
2022-07-25T05:05:57.260Z,1009.00
2022-07-25T05:06:57.297Z,1009.00
2022-07-25T05:07:57.337Z,1008.99
2022-07-25T05:08:57.376Z,1009.01
2022-07-25T05:09:57.413Z,1009.03
2022-07-25T05:10:57.454Z,1009.01
2022-07-25T05:11:57.490Z,1009.03
2022-07-25T05:12:57.528Z,1008.96
2022-07-25T05:13:57.563Z,1008.99
2022-07-25T05:14:57.603Z,1008.99
2022-07-25T05:15:57.705Z,1008.96
2022-07-25T05:16:57.677Z,1009.00
2022-07-25T05:17:57.717Z,1008.98
2022-07-25T05:18:57.755Z,1008.99
2022-07-25T05:19:57.792Z,1008.93
2022-07-25T05:20:57.828Z,1008.92
2022-07-25T05:21:57.875Z,1008.98
2022-07-25T05:22:57.905Z,1008.95
2022-07-25T05:23:57.943Z,1008.94
2022-07-25T05:24:58.411Z,1008.90
2022-07-25T05:25:58.025Z,1008.92
2022-07-25T05:26:58.056Z,1008.94
2022-07-25T05:27:58.095Z,1008.91
2022-07-25T05:28:58.131Z,1008.87
2022-07-25T05:29:58.171Z,1008.90
2022-07-25T05:30:58.208Z,1008.88
2022-07-25T05:31:58.315Z,1008.89
2022-07-25T05:32:58.284Z,1008.89
2022-07-25T05:33:58.322Z,1008.84
2022-07-25T05:34:58.359Z,1008.93
2022-07-25T05:35:58.399Z,1008.90
2022-07-25T05:36:58.439Z,1008.85
2022-07-25T05:37:58.475Z,1008.85
2022-07-25T05:38:58.510Z,1008.85
2022-07-25T05:39:58.554Z,1008.87
2022-07-25T05:40:58.594Z,1008.84
2022-07-25T05:41:58.628Z,1008.86
2022-07-25T05:43:02.972Z,1008.88
2022-07-25T05:43:58.703Z,1008.84
2022-07-25T05:44:58.778Z,1008.80
2022-07-25T05:45:58.785Z,1008.83
2022-07-25T05:46:58.875Z,1008.82
2022-07-25T05:47:58.865Z,1008.79
2022-07-25T05:48:58.958Z,1008.78
2022-07-25T05:49:58.931Z,1008.78
2022-07-25T05:50:59.010Z,1008.81
2022-07-25T05:51:59.007Z,1008.85
2022-07-25T05:52:59.047Z,1008.77
2022-07-25T05:53:59.081Z,1008.77
2022-07-25T05:54:59.117Z,1008.71
2022-07-25T05:55:59.158Z,1008.74
2022-07-25T05:56:59.203Z,1008.75
2022-07-25T05:57:59.236Z,1008.71
2022-07-25T05:58:59.276Z,1008.69
2022-07-25T05:59:59.311Z,1008.72
2022-07-25T06:00:59.355Z,1008.72
2022-07-25T06:01:59.520Z,1008.71
2022-07-25T06:02:59.600Z,1008.72
2022-07-25T06:03:59.468Z,1008.65
2022-07-25T06:04:59.509Z,1008.67
2022-07-25T06:05:59.538Z,1008.61
2022-07-25T06:06:59.577Z,1008.67
2022-07-25T06:07:59.631Z,1008.70
2022-07-25T06:08:59.686Z,1008.60
2022-07-25T06:09:59.704Z,1008.64
2022-07-25T06:10:59.729Z,1008.61
2022-07-25T06:12:01.101Z,1008.58
2022-07-25T06:12:59.805Z,1008.59
2022-07-25T06:13:59.855Z,1008.58
2022-07-25T06:14:59.892Z,1008.54
2022-07-25T06:15:59.943Z,1008.58
2022-07-25T06:16:59.961Z,1008.53
2022-07-25T06:17:59.996Z,1008.49
2022-07-25T06:19:00.032Z,1008.42
2022-07-25T06:20:00.119Z,1008.46
2022-07-25T06:21:00.106Z,1008.46
2022-07-25T06:22:00.148Z,1008.43
2022-07-25T06:23:00.186Z,1008.46
2022-07-25T06:24:00.224Z,1008.44
2022-07-25T06:25:00.265Z,1008.42
2022-07-25T06:26:00.300Z,1008.40
2022-07-25T06:27:00.342Z,1008.40
2022-07-25T06:28:00.375Z,1008.42
2022-07-25T06:29:00.416Z,1008.39
2022-07-25T06:30:00.453Z,1008.31
2022-07-25T06:31:00.547Z,1008.39
2022-07-25T06:32:00.609Z,1008.37
2022-07-25T06:33:00.569Z,1008.31
2022-07-25T06:34:00.611Z,1008.34
2022-07-25T06:35:00.656Z,1008.27
2022-07-25T06:36:00.688Z,1008.29
2022-07-25T06:37:00.721Z,1008.26
2022-07-25T06:38:00.803Z,1008.26
2022-07-25T06:39:00.799Z,1008.24
2022-07-25T06:40:00.838Z,1008.20
2022-07-25T06:41:00.876Z,1008.21
2022-07-25T06:42:00.919Z,1008.20
2022-07-25T06:43:00.951Z,1008.22
2022-07-25T06:44:00.992Z,1008.20
2022-07-25T06:45:01.029Z,1008.15
2022-07-25T06:46:01.065Z,1008.22
2022-07-25T06:47:01.163Z,1008.17
2022-07-25T06:48:01.144Z,1008.18
2022-07-25T06:49:01.219Z,1008.19
2022-07-25T06:50:01.219Z,1008.18
2022-07-25T06:51:01.259Z,1008.17
2022-07-25T06:52:01.299Z,1008.14
2022-07-25T06:53:01.336Z,1008.13
2022-07-25T06:54:01.373Z,1008.14
2022-07-25T06:55:01.443Z,1008.13
2022-07-25T06:56:01.465Z,1008.11
2022-07-25T06:57:01.494Z,1008.09
2022-07-25T06:58:01.531Z,1008.09
2022-07-25T06:59:01.568Z,1008.07
2022-07-25T07:00:01.608Z,1008.08
2022-07-25T07:01:01.731Z,1008.03
2022-07-25T07:02:01.691Z,1008.06
2022-07-25T07:03:01.822Z,1008.05
2022-07-25T07:04:01.763Z,1008.00
2022-07-25T07:05:01.799Z,1007.96
2022-07-25T07:06:01.838Z,1007.99
2022-07-25T07:07:01.884Z,1007.95
2022-07-25T07:08:01.916Z,1007.95
2022-07-25T07:09:01.954Z,1007.90
2022-07-25T07:10:02.015Z,1007.90
2022-07-25T07:11:02.039Z,1007.89
2022-07-25T07:12:02.094Z,1007.88
2022-07-25T07:13:02.110Z,1007.88
2022-07-25T07:14:02.199Z,1007.84
2022-07-25T07:15:02.187Z,1007.83
2022-07-25T07:16:02.279Z,1007.77
2022-07-25T07:17:02.269Z,1007.76
2022-07-25T07:18:02.304Z,1007.75
2022-07-25T07:19:02.347Z,1007.73
2022-07-25T07:20:02.381Z,1007.74
2022-07-25T07:21:02.437Z,1007.71
2022-07-25T07:22:02.470Z,1007.72
2022-07-25T07:23:02.509Z,1007.71
2022-07-25T07:24:02.545Z,1007.67
2022-07-25T07:25:02.588Z,1007.68
2022-07-25T07:26:02.624Z,1007.64
2022-07-25T07:27:02.657Z,1007.66
2022-07-25T07:28:02.721Z,1007.65
2022-07-25T07:29:02.944Z,1007.64
2022-07-25T07:30:02.772Z,1007.64
2022-07-25T07:31:18.550Z,1007.66
2022-07-25T07:32:02.947Z,1007.64
2022-07-25T07:33:02.904Z,1007.64
2022-07-25T07:34:02.939Z,1007.67
2022-07-25T07:35:02.982Z,1007.72
2022-07-25T07:36:03.024Z,1007.67
2022-07-25T07:37:03.061Z,1007.65
2022-07-25T07:38:03.093Z,1007.68
2022-07-25T07:39:03.308Z,1007.61
2022-07-25T07:40:03.173Z,1007.62
2022-07-25T07:41:03.229Z,1007.60
2022-07-25T07:42:03.248Z,1007.59
2022-07-25T07:43:03.292Z,1007.56
2022-07-25T07:44:03.326Z,1007.70
2022-07-25T07:45:03.380Z,1007.53
2022-07-25T07:46:03.489Z,1007.53
2022-07-25T07:47:03.504Z,1007.58
2022-07-25T07:48:03.488Z,1007.50
2022-07-25T07:49:04.107Z,1007.54
2022-07-25T07:50:03.579Z,1007.58
2022-07-25T07:51:03.619Z,1007.49
2022-07-25T07:52:03.652Z,1007.45
2022-07-25T07:53:03.704Z,1007.50
2022-07-25T07:54:03.735Z,1007.56
2022-07-25T07:55:03.770Z,1007.45
2022-07-25T07:56:03.801Z,1007.48
2022-07-25T07:57:03.843Z,1007.44
2022-07-25T07:58:04.876Z,1007.51
2022-07-25T07:59:04.206Z,1007.50
2022-07-25T08:00:03.965Z,1007.48
2022-07-25T08:01:04.007Z,1007.44
2022-07-25T08:02:04.122Z,1007.40
2022-07-25T08:03:04.184Z,1007.44
2022-07-25T08:04:04.119Z,1007.43
2022-07-25T08:05:04.174Z,1007.62
2022-07-25T08:06:04.199Z,1007.49
2022-07-25T08:07:04.250Z,1007.43
2022-07-25T08:08:04.283Z,1007.42
2022-07-25T08:09:04.670Z,1007.41
2022-07-25T08:10:04.363Z,1007.36
2022-07-25T08:11:04.407Z,1007.33
2022-07-25T08:12:04.440Z,1007.32
2022-07-25T08:13:04.476Z,1007.29
2022-07-25T08:14:04.842Z,1007.32
2022-07-25T08:15:04.579Z,1007.30
2022-07-25T08:16:04.619Z,1007.31
2022-07-25T08:17:04.644Z,1007.33
2022-07-25T08:18:04.683Z,1007.31
2022-07-25T08:19:04.733Z,1007.26
2022-07-25T08:20:27.637Z,1007.30
2022-07-25T08:21:04.812Z,1007.32
2022-07-25T08:22:04.840Z,1007.28
2022-07-25T08:23:04.947Z,1007.27
2022-07-25T08:24:05.193Z,1007.25
2022-07-25T08:25:04.956Z,1007.27
2022-07-25T08:26:05.012Z,1007.20
2022-07-25T08:27:05.048Z,1007.20
2022-07-25T08:28:05.084Z,1007.23
2022-07-25T08:29:18.921Z,1007.21
2022-07-25T08:30:05.162Z,1007.20
2022-07-25T08:31:05.297Z,1007.17
2022-07-25T08:32:05.244Z,1007.20
2022-07-25T08:33:05.297Z,1007.17
2022-07-25T08:34:05.459Z,1007.17
2022-07-25T08:35:11.030Z,1007.19
2022-07-25T08:36:05.406Z,1007.13
2022-07-25T08:37:05.443Z,1007.13
2022-07-25T08:38:05.490Z,1007.08
2022-07-25T08:39:05.546Z,1007.14
2022-07-25T08:40:05.565Z,1007.19
2022-07-25T08:41:05.637Z,1007.07
2022-07-25T08:42:10.808Z,1007.17
2022-07-25T08:43:05.703Z,1007.08
2022-07-25T08:44:06.122Z,1007.11
2022-07-25T08:45:05.777Z,1007.09
2022-07-25T08:46:05.891Z,1007.13
2022-07-25T08:47:05.857Z,1007.14
2022-07-25T08:48:05.896Z,1007.17
2022-07-25T08:49:06.004Z,1007.13
2022-07-25T08:50:05.974Z,1007.14
2022-07-25T08:51:06.020Z,1007.11
2022-07-25T08:52:06.057Z,1007.09
2022-07-25T08:53:31.454Z,1007.07
2022-07-25T08:54:06.469Z,1007.07
2022-07-25T08:55:06.185Z,1007.12
2022-07-25T08:56:11.633Z,1007.05
2022-07-25T08:57:06.262Z,1007.03
2022-07-25T08:58:06.296Z,1007.05
2022-07-25T08:59:06.338Z,1007.01
2022-07-25T09:00:06.380Z,1006.97
2022-07-25T09:01:06.422Z,1007.06
2022-07-25T09:02:06.492Z,1006.94
2022-07-25T09:03:06.643Z,1006.89
2022-07-25T09:04:06.981Z,1006.92
2022-07-25T09:05:06.586Z,1006.87
2022-07-25T09:06:06.626Z,1006.81
2022-07-25T09:07:08.315Z,1006.81
2022-07-25T09:08:06.710Z,1006.82
2022-07-25T09:09:06.750Z,1006.79
2022-07-25T09:10:06.791Z,1006.84
2022-07-25T09:11:06.835Z,1006.82
2022-07-25T09:12:06.880Z,1006.75
2022-07-25T09:13:06.913Z,1006.72
2022-07-25T09:14:08.264Z,1006.83
2022-07-25T09:15:07.004Z,1006.78
2022-07-25T09:16:07.071Z,1006.75
2022-07-25T09:17:07.079Z,1006.66
2022-07-25T09:18:08.127Z,1006.74
2022-07-25T09:19:07.164Z,1006.79
2022-07-25T09:20:07.213Z,1006.77
2022-07-25T09:21:07.245Z,1006.77
2022-07-25T09:22:07.288Z,1006.71
2022-07-25T09:23:07.337Z,1006.76
2022-07-25T09:24:07.682Z,1006.79
2022-07-25T09:25:07.412Z,1006.68
2022-07-25T09:26:07.458Z,1006.69
2022-07-25T09:27:07.496Z,1006.68
2022-07-25T09:28:07.539Z,1006.74
2022-07-25T09:29:07.580Z,1006.62
2022-07-25T09:30:07.621Z,1006.64
2022-07-25T09:31:07.719Z,1006.56
2022-07-25T09:32:07.705Z,1006.56
2022-07-25T09:33:07.747Z,1006.49
2022-07-25T09:34:08.059Z,1006.49
2022-07-25T09:35:07.847Z,1006.44
2022-07-25T09:36:07.924Z,1006.42
2022-07-25T09:37:07.924Z,1006.44
2022-07-25T09:38:07.954Z,1006.49
2022-07-25T09:39:08.002Z,1006.41
2022-07-25T09:40:08.047Z,1006.33
2022-07-25T09:41:08.085Z,1006.40
2022-07-25T09:42:08.122Z,1006.33
2022-07-25T09:43:08.168Z,1006.34
2022-07-25T09:44:08.848Z,1006.34
2022-07-25T09:45:08.262Z,1006.32
2022-07-25T09:46:08.351Z,1006.35
2022-07-25T09:47:08.333Z,1006.34
2022-07-25T09:48:08.379Z,1006.37
2022-07-25T09:49:08.511Z,1006.29
2022-07-25T09:50:08.469Z,1006.30
2022-07-25T09:51:08.502Z,1006.30
2022-07-25T09:52:08.546Z,1006.24
2022-07-25T09:53:08.589Z,1006.14
2022-07-25T09:54:09.054Z,1006.27
2022-07-25T09:55:08.677Z,1006.21
2022-07-25T09:56:08.722Z,1006.10
2022-07-25T09:57:08.762Z,1006.11
2022-07-25T09:58:08.800Z,1006.21
2022-07-25T09:59:08.842Z,1006.08
2022-07-25T10:00:08.883Z,1006.04
2022-07-25T10:01:08.990Z,1006.11
2022-07-25T10:02:09.035Z,1006.06
2022-07-25T10:03:09.074Z,1006.10
2022-07-25T10:04:09.349Z,1006.01
2022-07-25T10:05:09.092Z,1006.08
2022-07-25T10:06:09.138Z,1006.00
2022-07-25T10:07:09.179Z,1006.00
2022-07-25T10:08:09.222Z,1005.92
2022-07-25T10:09:09.264Z,1005.99
2022-07-25T10:10:09.304Z,1005.98
2022-07-25T10:11:09.350Z,1005.92
2022-07-25T10:12:09.389Z,1005.87
2022-07-25T10:13:10.795Z,1005.84
2022-07-25T10:14:09.932Z,1005.81
2022-07-25T10:15:09.531Z,1005.86
2022-07-25T10:16:09.561Z,1005.84
2022-07-25T10:17:09.782Z,1005.79
2022-07-25T10:18:09.646Z,1005.80
2022-07-25T10:19:09.691Z,1005.75
2022-07-25T10:20:16.944Z,1005.81
2022-07-25T10:22:02.926Z,1005.70
2022-07-25T10:23:02.964Z,1005.70
2022-07-25T10:24:56.135Z,1005.71
2022-07-25T10:25:56.174Z,1005.67
2022-07-25T10:28:00.255Z,1005.69
2022-07-25T10:29:00.289Z,1005.65
2022-07-25T10:30:53.504Z,1005.60
2022-07-25T10:31:53.506Z,1005.55
2022-07-25T10:33:57.576Z,1005.65
2022-07-25T10:34:57.611Z,1005.59
2022-07-25T10:36:50.823Z,1005.52
2022-07-25T10:37:50.824Z,1005.51
2022-07-25T10:39:44.002Z,1005.52
2022-07-25T10:40:44.044Z,1005.52
2022-07-25T10:42:48.131Z,1005.52
2022-07-25T10:43:48.891Z,1005.45
2022-07-25T10:44:48.213Z,1005.39
2022-07-25T10:45:48.290Z,1005.38
2022-07-25T10:46:48.302Z,1005.44
2022-07-25T10:47:48.345Z,1005.45
2022-07-25T10:48:48.429Z,1005.47
2022-07-25T10:50:13.975Z,1005.28
2022-07-25T10:50:56.656Z,1005.26
2022-07-25T10:51:48.518Z,1005.29
2022-07-25T10:52:48.562Z,1005.17
2022-07-25T10:53:48.606Z,1005.31
2022-07-25T10:54:48.656Z,1005.27
2022-07-25T10:56:04.878Z,1005.21
2022-07-25T10:56:48.738Z,1005.23
2022-07-25T10:58:15.321Z,1005.29
2022-07-25T10:58:48.831Z,1005.32
2022-07-25T10:59:48.869Z,1005.32
2022-07-25T11:00:48.910Z,1005.41
2022-07-25T11:01:49.015Z,1005.24
2022-07-25T11:02:49.078Z,1005.22
2022-07-25T11:03:49.058Z,1005.35
2022-07-25T11:04:49.092Z,1005.08
2022-07-25T11:05:49.139Z,1005.13
2022-07-25T11:06:49.180Z,1005.09
2022-07-25T11:08:11.120Z,1005.03
2022-07-25T11:08:49.268Z,1004.95
2022-07-25T11:09:49.310Z,1005.01
2022-07-25T11:10:49.361Z,1005.01
2022-07-25T11:11:49.399Z,1005.00
2022-07-25T11:12:49.449Z,1004.96
2022-07-25T11:13:49.487Z,1005.07
2022-07-25T11:14:49.535Z,1005.00
2022-07-25T11:15:49.575Z,1004.95
2022-07-25T11:16:49.679Z,1005.04
2022-07-25T11:17:49.659Z,1004.91
2022-07-25T11:18:49.711Z,1005.00
2022-07-25T11:19:49.746Z,1004.87
2022-07-25T11:20:49.794Z,1004.91
2022-07-25T11:21:49.840Z,1005.15
2022-07-25T11:22:49.879Z,1004.93
2022-07-25T11:23:49.922Z,1004.91
2022-07-25T11:24:49.964Z,1005.01
2022-07-25T11:25:50.015Z,1004.90
2022-07-25T11:26:50.063Z,1005.03
2022-07-25T11:27:50.106Z,1004.93
2022-07-25T11:28:50.145Z,1004.85
2022-07-25T11:29:50.189Z,1004.89
2022-07-25T11:30:50.234Z,1004.77
2022-07-25T11:31:50.317Z,1004.78
2022-07-25T11:32:50.317Z,1004.84
2022-07-25T11:33:50.361Z,1004.71
2022-07-25T11:34:50.499Z,1004.76
2022-07-25T11:35:50.448Z,1004.86
2022-07-25T11:36:50.499Z,1004.85
2022-07-25T11:37:50.535Z,1004.65
2022-07-25T11:38:50.579Z,1004.67
2022-07-25T11:39:50.630Z,1004.70
2022-07-25T11:40:50.668Z,1004.63
2022-07-25T11:41:50.715Z,1004.64
2022-07-25T11:42:50.770Z,1004.64
2022-07-25T11:43:50.801Z,1004.63
2022-07-25T11:44:50.844Z,1004.62
2022-07-25T11:45:50.948Z,1004.80
2022-07-25T11:46:50.937Z,1004.88
2022-07-25T11:47:50.981Z,1004.74
2022-07-25T11:48:51.050Z,1004.73
2022-07-25T11:49:51.066Z,1004.68
2022-07-25T11:50:51.115Z,1004.72
2022-07-25T11:51:51.218Z,1004.68
2022-07-25T11:52:51.202Z,1004.53
2022-07-25T11:53:51.251Z,1004.57
2022-07-25T11:54:51.303Z,1004.50
2022-07-25T11:55:51.334Z,1004.53
2022-07-25T11:56:51.381Z,1004.51
2022-07-25T11:57:51.422Z,1004.74
2022-07-25T11:58:51.469Z,1004.55
2022-07-25T11:59:51.534Z,1004.44
2022-07-25T12:00:51.566Z,1004.41
2022-07-25T12:01:51.701Z,1004.47
2022-07-25T12:02:51.763Z,1004.44
2022-07-25T12:03:51.731Z,1004.39
2022-07-25T12:04:51.744Z,1004.41
2022-07-25T12:05:51.783Z,1004.43
2022-07-25T12:06:51.839Z,1004.36
2022-07-25T12:07:51.884Z,1004.33
2022-07-25T12:08:51.919Z,1004.42
2022-07-25T12:09:51.970Z,1004.37
2022-07-25T12:10:52.011Z,1004.33
2022-07-25T12:11:52.056Z,1004.17
2022-07-25T12:12:52.097Z,1004.21
2022-07-25T12:13:52.140Z,1004.20
2022-07-25T12:14:52.191Z,1004.27
2022-07-25T12:15:52.238Z,1004.35
2022-07-25T12:16:52.333Z,1004.37
2022-07-25T12:17:52.319Z,1004.19
2022-07-25T12:18:52.371Z,1004.13
2022-07-25T12:19:52.414Z,1004.11
2022-07-25T12:20:52.460Z,1004.14
2022-07-25T12:21:52.514Z,1004.09
2022-07-25T12:22:52.549Z,1004.09
2022-07-25T12:23:52.595Z,1003.96
2022-07-25T12:24:52.639Z,1004.01
2022-07-25T12:25:52.679Z,1004.06
2022-07-25T12:26:52.725Z,1004.01
2022-07-25T12:27:52.765Z,1003.96
2022-07-25T12:28:52.815Z,1004.01
2022-07-25T12:29:52.859Z,1003.88
2022-07-25T12:30:56.455Z,1004.00
2022-07-25T12:31:52.942Z,1003.98
2022-07-25T12:32:52.989Z,1004.01
2022-07-25T12:33:53.032Z,1003.90
2022-07-25T12:34:53.079Z,1003.91